Time;durP1;ratioP1;P1;durP2;ratioP2;P2;SDS_P1;SDS_P2;PMS_P1;PMS_P2;Temp;Humidity;BMP_temperature;BMP_pressure;BME280_temperature;BME280_humidity;BME280_pressure;Samples;Min_cycle;Max_cycle;Signal;HPM_P1;HPM_P2
2021/06/11 00:02:24;;;;;;;;;;;;;;;;;;2126913;67;1165;-69
2021/06/11 00:04:49;;;;;;;;;;;;;;;;;;2126805;67;1208;-69
2021/06/11 00:07:14;;;;;;;;;;;;;;;;;;2126205;67;1182;-69
2021/06/11 00:09:40;;;;;;;;;;;;;;;;;;2125397;67;1348;-67
2021/06/11 00:12:05;;;;;;;;;;;;;;;;;;2125639;67;1930;-68
2021/06/11 00:14:30;;;;;;;;;;;;;;;;;;2127281;67;1241;-67
2021/06/11 00:16:55;;;;;;;;;;;;;;;;;;2126688;59;1710;-69
2021/06/11 00:19:21;;;;;;;;;;;;;;;;;;2127188;59;1185;-69
2021/06/11 00:21:46;;;;;;;;;;;;;;;;;;2126893;59;1289;-69
2021/06/11 00:24:11;;;;;;;;;;;;;;;;;;2127063;67;1120;-69
2021/06/11 00:26:36;;;;;;;;;;;;;;;;;;2126918;67;1294;-67
2021/06/11 00:29:01;;;;;;;;;;;;;;;;;;2125161;59;1342;-67
2021/06/11 00:31:27;;;;;;;;;;;;;;;;;;2125950;67;1939;-69
2021/06/11 00:33:52;;;;;;;;;;;;;;;;;;2128244;67;1214;-69
2021/06/11 00:36:17;;;;;;;;;;;;;;;;;;2125765;67;1318;-69
2021/06/11 00:38:42;;;;;;;;;;;;;;;;;;2127340;67;1229;-67
2021/06/11 00:41:07;;;;;;;;;;;;;;;;;;2125889;67;1155;-68
2021/06/11 00:43:33;;;;;;;;;;;;;;;;;;2126455;67;1124;-70
2021/06/11 00:45:58;;;;;;;;;;;;;;;;;;2126784;59;1257;-67
2021/06/11 00:48:23;;;;;;;;;;;;;;;;;;2126327;67;1227;-68
2021/06/11 00:50:48;;;;;;;;;;;;;;;;;;2125867;67;1319;-66
2021/06/11 00:53:13;;;;;;;;;;;;;;;;;;2127218;67;1992;-70
2021/06/11 00:55:45;;;;;;;;;;;;;;;;;;2125644;67;1338;-68
2021/06/11 00:58:15;;;;;;;;;;;;;;;;;;2125736;67;1147;-67
2021/06/11 01:00:40;;;;;;;;;;;;;;;;;;2127042;67;1149;-68
2021/06/11 01:03:06;;;;;;;;;;;;;;;;;;2125964;67;1136;-66
2021/06/11 01:05:32;;;;;;;;;;;;;;;;;;2126466;67;1470;-70
2021/06/11 01:07:57;;;;;;;;;;;;;;;;;;2126513;59;1355;-68
2021/06/11 01:10:23;;;;;;;;;;;;;;;;;;2126841;67;1106;-65
2021/06/11 01:12:50;;;;;;;;;;;;;;;;;;2126540;67;1934;-68
2021/06/11 01:15:17;;;;;;;;;;;;;;;;;;2126629;67;1404;-68
2021/06/11 01:17:42;;;;;;;;;;;;;;;;;;2126770;67;1246;-68
2021/06/11 01:20:09;;;;;;;;;;;;;;;;;;2126806;67;1139;-68
2021/06/11 01:22:53;;;;;;;;;;;;;;;;;;2126852;67;1217;-69
2021/06/11 01:25:25;;;;;;;;;;;;;;;;;;2126889;67;1338;-69
2021/06/11 01:27:51;;;;;;;;;;;;;;;;;;2126031;67;1272;-68
2021/06/11 01:30:21;;;;;;;;;;;;;;;;;;2126142;67;1200;-69
2021/06/11 01:32:47;;;;;;;;;;;;;;;;;;2125451;67;2029;-69
2021/06/11 01:35:15;;;;;;;;;;;;;;;;;;2126191;66;1290;-68
2021/06/11 01:37:41;;;;;;;;;;;;;;;;;;2127202;67;1222;-69
2021/06/11 01:40:07;;;;;;;;;;;;;;;;;;2126567;67;1150;-68
2021/06/11 01:42:35;;;;;;;;;;;;;;;;;;2127215;67;1143;-68
2021/06/11 01:45:06;;;;;;;;;;;;;;;;;;2126730;59;1219;-67
2021/06/11 01:47:31;;;;;;;;;;;;;;;;;;2127073;59;1487;-70
2021/06/11 01:49:57;;;;;;;;;;;;;;;;;;2125648;67;1314;-71
2021/06/11 01:52:24;;;;;;;;;;;;;;;;;;2126484;67;1932;-69
2021/06/11 01:54:49;;;;;;;;;;;;;;;;;;2127298;67;1226;-68
2021/06/11 01:57:15;;;;;;;;;;;;;;;;;;2126120;67;1069;-66
2021/06/11 01:59:41;;;;;;;;;;;;;;;;;;2126308;67;1154;-66
2021/06/11 02:02:07;;;;;;;;;;;;;;;;;;2126743;67;1206;-67
2021/06/11 02:04:32;;;;;;;;;;;;;;;;;;2126306;63;1200;-66
2021/06/11 02:06:58;;;;;;;;;;;;;;;;;;2127090;67;1139;-69
2021/06/11 02:09:24;;;;;;;;;;;;;;;;;;2126588;67;1242;-69
2021/06/11 02:11:49;;;;;;;;;;;;;;;;;;2126632;67;1989;-67
2021/06/11 02:14:15;;;;;;;;;;;;;;;;;;2128192;66;1068;-71
2021/06/11 02:16:42;;;;;;;;;;;;;;;;;;2126883;67;1569;-71
2021/06/11 02:19:07;;;;;;;;;;;;;;;;;;2128055;67;1157;-71
2021/06/11 02:21:32;;;;;;;;;;;;;;;;;;2125888;67;1155;-69
2021/06/11 02:23:58;;;;;;;;;;;;;;;;;;2127200;67;1149;-68
2021/06/11 02:26:25;;;;;;;;;;;;;;;;;;2127345;67;1222;-68
2021/06/11 02:28:50;;;;;;;;;;;;;;;;;;2127156;59;1274;-70
2021/06/11 02:31:16;;;;;;;;;;;;;;;;;;2125969;67;2365;-69
2021/06/11 02:33:41;;;;;;;;;;;;;;;;;;2126966;67;1045;-68
2021/06/11 02:36:07;;;;;;;;;;;;;;;;;;2126118;67;1230;-68
2021/06/11 02:38:32;;;;;;;;;;;;;;;;;;2127527;67;1244;-69
2021/06/11 02:40:58;;;;;;;;;;;;;;;;;;2127397;67;1178;-68
2021/06/11 02:43:24;;;;;;;;;;;;;;;;;;2127305;67;1178;-67
2021/06/11 02:45:49;;;;;;;;;;;;;;;;;;2127477;59;1216;-70
2021/06/11 02:48:19;;;;;;;;;;;;;;;;;;2127771;66;1242;-69
2021/06/11 02:50:46;;;;;;;;;;;;;;;;;;2127165;67;1413;-70
2021/06/11 02:53:14;;;;;;;;;;;;;;;;;;2127154;66;1935;-70
2021/06/11 02:55:39;;;;;;;;;;;;;;;;;;2125402;67;1677;-71
2021/06/11 02:58:09;;;;;;;;;;;;;;;;;;2126636;67;1211;-69
2021/06/11 03:00:35;;;;;;;;;;;;;;;;;;2128372;67;1225;-70
2021/06/11 03:03:15;;;;;;;;;;;;;;;;;;2126578;67;1067;-70
2021/06/11 03:05:42;;;;;;;;;;;;;;;;;;2126249;67;1227;-71
2021/06/11 03:08:10;;;;;;;;;;;;;;;;;;2127075;67;1440;-69
2021/06/11 03:10:35;;;;;;;;;;;;;;;;;;2125634;66;1230;-70
2021/06/11 03:13:01;;;;;;;;;;;;;;;;;;2127122;67;1968;-71
2021/06/11 03:15:28;;;;;;;;;;;;;;;;;;2125292;59;1322;-71
2021/06/11 03:17:55;;;;;;;;;;;;;;;;;;2126720;67;1254;-70
2021/06/11 03:20:23;;;;;;;;;;;;;;;;;;2127292;67;1155;-71
2021/06/11 03:22:54;;;;;;;;;;;;;;;;;;2126302;67;1135;-69
2021/06/11 03:25:24;;;;;;;;;;;;;;;;;;2126130;59;1235;-69
2021/06/11 03:27:52;;;;;;;;;;;;;;;;;;2126545;67;1174;-70
2021/06/11 03:30:19;;;;;;;;;;;;;;;;;;2126820;67;1219;-71
2021/06/11 03:32:47;;;;;;;;;;;;;;;;;;2124414;67;1948;-69
2021/06/11 03:35:20;;;;;;;;;;;;;;;;;;2125759;67;1697;-69
2021/06/11 03:37:47;;;;;;;;;;;;;;;;;;2126182;67;1203;-68
2021/06/11 03:40:15;;;;;;;;;;;;;;;;;;2126880;67;1076;-68
2021/06/11 03:42:40;;;;;;;;;;;;;;;;;;2125561;67;1245;-70
2021/06/11 03:45:06;;;;;;;;;;;;;;;;;;2126733;59;1347;-70
2021/06/11 03:47:33;;;;;;;;;;;;;;;;;;2126074;59;1350;-70
2021/06/11 03:49:59;;;;;;;;;;;;;;;;;;2125385;67;1247;-71
2021/06/11 03:52:25;;;;;;;;;;;;;;;;;;2125201;67;2012;-71
2021/06/11 03:54:52;;;;;;;;;;;;;;;;;;2126812;67;1172;-70
2021/06/11 03:57:19;;;;;;;;;;;;;;;;;;2126239;67;1179;-69
2021/06/11 03:59:46;;;;;;;;;;;;;;;;;;2126768;67;1220;-71
2021/06/11 04:02:11;;;;;;;;;;;;;;;;;;2126530;67;1149;-69
2021/06/11 04:04:37;;;;;;;;;;;;;;;;;;2126642;67;1236;-71
2021/06/11 04:07:16;;;;;;;;;;;;;;;;;;2127343;67;1191;-70
2021/06/11 04:09:46;;;;;;;;;;;;;;;;;;2126006;67;1179;-68
2021/06/11 04:12:15;;;;;;;;;;;;;;;;;;2126592;67;1983;-67
2021/06/11 04:14:42;;;;;;;;;;;;;;;;;;2126909;67;1248;-67
2021/06/11 04:17:20;;;;;;;;;;;;;;;;;;2126304;59;1708;-67
2021/06/11 04:19:48;;;;;;;;;;;;;;;;;;2126615;67;1273;-67
2021/06/11 04:22:13;;;;;;;;;;;;;;;;;;2126564;67;1243;-68
2021/06/11 04:24:42;;;;;;;;;;;;;;;;;;2126744;67;1243;-70
2021/06/11 04:27:07;;;;;;;;;;;;;;;;;;2125184;67;1219;-69
2021/06/11 04:29:34;;;;;;;;;;;;;;;;;;2127781;59;1275;-71
2021/06/11 04:31:59;;;;;;;;;;;;;;;;;;2126013;67;1922;-66
2021/06/11 04:34:25;;;;;;;;;;;;;;;;;;2126580;67;1207;-68
2021/06/11 04:36:50;;;;;;;;;;;;;;;;;;2126092;67;1805;-68
2021/06/11 04:39:16;;;;;;;;;;;;;;;;;;2126681;67;1214;-67
2021/06/11 04:41:41;;;;;;;;;;;;;;;;;;2126169;67;1181;-69
2021/06/11 04:44:07;;;;;;;;;;;;;;;;;;2127042;67;1088;-70
2021/06/11 04:46:35;;;;;;;;;;;;;;;;;;2126876;59;2197;-71
2021/06/11 04:49:00;;;;;;;;;;;;;;;;;;2126001;59;1321;-71
2021/06/11 04:51:26;;;;;;;;;;;;;;;;;;2126158;59;1912;-71
2021/06/11 04:53:51;;;;;;;;;;;;;;;;;;2137178;59;1198;-71
2021/06/11 04:56:17;;;;;;;;;;;;;;;;;;2126768;67;1267;-69
2021/06/11 04:58:44;;;;;;;;;;;;;;;;;;2127011;67;1192;-71
2021/06/11 05:01:10;;;;;;;;;;;;;;;;;;2126977;67;1108;-70
2021/06/11 05:03:35;;;;;;;;;;;;;;;;;;2127461;59;1156;-69
2021/06/11 05:06:01;;;;;;;;;;;;;;;;;;2126568;67;1281;-70
2021/06/11 05:08:27;;;;;;;;;;;;;;;;;;2126545;59;1357;-70
2021/06/11 05:10:52;;;;;;;;;;;;;;;;;;2126092;67;1211;-69
2021/06/11 05:13:17;;;;;;;;;;;;;;;;;;2124948;67;1930;-69
2021/06/11 05:15:42;;;;;;;;;;;;;;;;;;2126892;67;1278;-71
2021/06/11 05:18:08;;;;;;;;;;;;;;;;;;2127508;67;1162;-70
2021/06/11 05:20:34;;;;;;;;;;;;;;;;;;2127242;59;1236;-70
2021/06/11 05:22:59;;;;;;;;;;;;;;;;;;2125285;67;1334;-71
2021/06/11 05:25:25;;;;;;;;;;;;;;;;;;2126279;67;1272;-71
2021/06/11 05:27:50;;;;;;;;;;;;;;;;;;2127013;67;1214;-71
2021/06/11 05:30:17;;;;;;;;;;;;;;;;;;2127415;67;1164;-70
2021/06/11 05:32:43;;;;;;;;;;;;;;;;;;2127379;67;1918;-71
2021/06/11 05:35:08;;;;;;;;;;;;;;;;;;2127665;66;1281;-72
2021/06/11 05:37:33;;;;;;;;;;;;;;;;;;2127270;67;1166;-67
2021/06/11 05:39:58;;;;;;;;;;;;;;;;;;2126359;67;1282;-68
2021/06/11 05:42:23;;;;;;;;;;;;;;;;;;2126633;67;1166;-67
2021/06/11 05:44:49;;;;;;;;;;;;;;;;;;2126311;59;1193;-68
2021/06/11 05:47:14;;;;;;;;;;;;;;;;;;2127041;59;1245;-67
2021/06/11 05:49:39;;;;;;;;;;;;;;;;;;2126553;67;1202;-67
2021/06/11 05:52:05;;;;;;;;;;;;;;;;;;2127598;67;1927;-69
2021/06/11 05:54:30;;;;;;;;;;;;;;;;;;2126744;67;1250;-67
2021/06/11 05:56:59;;;;;;;;;;;;;;;;;;2127421;67;1230;-67
2021/06/11 05:59:24;;;;;;;;;;;;;;;;;;2127199;67;1205;-67
2021/06/11 06:01:49;;;;;;;;;;;;;;;;;;2127015;67;1204;-67
2021/06/11 06:04:14;;;;;;;;;;;;;;;;;;2127396;67;1354;-68
2021/06/11 06:06:40;;;;;;;;;;;;;;;;;;2126666;67;1243;-67
2021/06/11 06:09:05;;;;;;;;;;;;;;;;;;2125422;67;1254;-69
2021/06/11 06:11:30;;;;;;;;;;;;;;;;;;2126597;67;1918;-68
2021/06/11 06:13:55;;;;;;;;;;;;;;;;;;2128029;67;1301;-69
2021/06/11 06:16:20;;;;;;;;;;;;;;;;;;2126372;59;1269;-68
2021/06/11 06:18:46;;;;;;;;;;;;;;;;;;2126193;67;1185;-69
2021/06/11 06:21:11;;;;;;;;;;;;;;;;;;2126285;59;1194;-66
2021/06/11 06:23:36;;;;;;;;;;;;;;;;;;2126359;67;1178;-68
2021/06/11 06:26:01;;;;;;;;;;;;;;;;;;2126535;67;1167;-68
2021/06/11 06:28:26;;;;;;;;;;;;;;;;;;2127352;59;1312;-69
2021/06/11 06:30:52;;;;;;;;;;;;;;;;;;2126849;67;1206;-68
2021/06/11 06:33:17;;;;;;;;;;;;;;;;;;2127139;67;1980;-68
2021/06/11 06:35:42;;;;;;;;;;;;;;;;;;2126039;67;1203;-69
2021/06/11 06:38:10;;;;;;;;;;;;;;;;;;2126710;67;1167;-67
2021/06/11 06:40:36;;;;;;;;;;;;;;;;;;2126542;59;1076;-69
2021/06/11 06:43:01;;;;;;;;;;;;;;;;;;2126742;67;1302;-69
2021/06/11 06:45:26;;;;;;;;;;;;;;;;;;2126758;59;1226;-69
2021/06/11 06:47:51;;;;;;;;;;;;;;;;;;2128110;67;1207;-69
2021/06/11 06:50:18;;;;;;;;;;;;;;;;;;2125985;67;1249;-68
2021/06/11 06:52:43;;;;;;;;;;;;;;;;;;2126422;67;1981;-67
2021/06/11 06:55:09;;;;;;;;;;;;;;;;;;2127058;67;1187;-69
2021/06/11 06:57:34;;;;;;;;;;;;;;;;;;2126731;67;1223;-69
2021/06/11 07:00:00;;;;;;;;;;;;;;;;;;2127219;67;1147;-68
2021/06/11 07:02:25;;;;;;;;;;;;;;;;;;2126582;67;1143;-66
2021/06/11 07:04:50;;;;;;;;;;;;;;;;;;2127437;67;1143;-68
2021/06/11 07:07:16;;;;;;;;;;;;;;;;;;2126840;59;1432;-69
2021/06/11 07:09:42;;;;;;;;;;;;;;;;;;2127129;67;1177;-69
2021/06/11 07:12:07;;;;;;;;;;;;;;;;;;2126703;67;1929;-67
2021/06/11 07:14:32;;;;;;;;;;;;;;;;;;2126895;60;1179;-70
2021/06/11 07:16:58;;;;;;;;;;;;;;;;;;2127338;59;1933;-70
2021/06/11 07:19:23;;;;;;;;;;;;;;;;;;2126788;67;1206;-68
2021/06/11 07:21:48;;;;;;;;;;;;;;;;;;2126049;67;1365;-68
2021/06/11 07:24:13;;;;;;;;;;;;;;;;;;2126767;67;1221;-67
2021/06/11 07:26:38;;;;;;;;;;;;;;;;;;2126445;59;2498;-70
2021/06/11 07:29:04;;;;;;;;;;;;;;;;;;2127175;67;1283;-70
2021/06/11 07:31:30;;;;;;;;;;;;;;;;;;2125224;67;1931;-72
2021/06/11 07:33:55;;;;;;;;;;;;;;;;;;2126371;67;1246;-67
2021/06/11 07:36:20;;;;;;;;;;;;;;;;;;2127032;67;1195;-71
2021/06/11 07:38:46;;;;;;;;;;;;;;;;;;2127229;67;1190;-70
2021/06/11 07:41:11;;;;;;;;;;;;;;;;;;2127140;67;1226;-71
2021/06/11 07:43:36;;;;;;;;;;;;;;;;;;2126630;67;1664;-70
2021/06/11 07:46:01;;;;;;;;;;;;;;;;;;2127259;67;1791;-70
2021/06/11 07:48:27;;;;;;;;;;;;;;;;;;2126902;59;1302;-70
2021/06/11 07:50:52;;;;;;;;;;;;;;;;;;2127833;67;1313;-69
2021/06/11 07:53:17;;;;;;;;;;;;;;;;;;2126250;67;2008;-71
2021/06/11 07:55:42;;;;;;;;;;;;;;;;;;2125614;67;1223;-71
2021/06/11 07:58:08;;;;;;;;;;;;;;;;;;2127176;67;1160;-71
2021/06/11 08:00:33;;;;;;;;;;;;;;;;;;2125605;67;1056;-71
2021/06/11 08:03:00;;;;;;;;;;;;;;;;;;2127250;67;1139;-71
2021/06/11 08:05:25;;;;;;;;;;;;;;;;;;2125886;67;1215;-71
2021/06/11 08:07:51;;;;;;;;;;;;;;;;;;2126189;67;1264;-69
2021/06/11 08:10:16;;;;;;;;;;;;;;;;;;2125842;67;1293;-70
2021/06/11 08:12:41;;;;;;;;;;;;;;;;;;2126912;67;1984;-71
2021/06/11 08:15:06;;;;;;;;;;;;;;;;;;2126456;59;1341;-70
2021/06/11 08:17:32;;;;;;;;;;;;;;;;;;2126789;67;1790;-69
2021/06/11 08:19:57;;;;;;;;;;;;;;;;;;2126375;67;1141;-70
2021/06/11 08:22:22;;;;;;;;;;;;;;;;;;2127070;67;1256;-66
2021/06/11 08:24:47;;;;;;;;;;;;;;;;;;2126585;67;1268;-69
2021/06/11 08:27:13;;;;;;;;;;;;;;;;;;2126734;67;1218;-69
2021/06/11 08:29:38;;;;;;;;;;;;;;;;;;2126968;59;1262;-70
2021/06/11 08:32:03;;;;;;;;;;;;;;;;;;2126626;67;1921;-68
2021/06/11 08:34:31;;;;;;;;;;;;;;;;;;2125262;67;1241;-68
2021/06/11 08:36:57;;;;;;;;;;;;;;;;;;2126856;67;1334;-69
2021/06/11 08:39:22;;;;;;;;;;;;;;;;;;2127038;67;1206;-69
2021/06/11 08:41:47;;;;;;;;;;;;;;;;;;2126855;67;1166;-68
2021/06/11 08:44:13;;;;;;;;;;;;;;;;;;2126901;67;1135;-70
2021/06/11 08:46:38;;;;;;;;;;;;;;;;;;2127477;59;1241;-68
2021/06/11 08:49:04;;;;;;;;;;;;;;;;;;2127569;67;1223;-69
2021/06/11 08:51:29;;;;;;;;;;;;;;;;;;2125226;67;1929;-68
2021/06/11 08:53:55;;;;;;;;;;;;;;;;;;2127049;67;1177;-70
2021/06/11 08:56:20;;;;;;;;;;;;;;;;;;2125453;67;1234;-69
2021/06/11 08:58:48;;;;;;;;;;;;;;;;;;2126384;67;1076;-67
2021/06/11 09:01:13;;;;;;;;;;;;;;;;;;2127253;67;1308;-69
2021/06/11 09:03:42;;;;;;;;;;;;;;;;;;2126396;67;1151;-68
2021/06/11 09:06:12;;;;;;;;;;;;;;;;;;2127710;67;1382;-67
2021/06/11 09:08:38;;;;;;;;;;;;;;;;;;2125881;67;1736;-68
2021/06/11 09:11:10;;;;;;;;;;;;;;;;;;2127483;67;1250;-69
2021/06/11 09:13:35;;;;;;;;;;;;;;;;;;2126619;59;1995;-69
2021/06/11 09:16:07;;;;;;;;;;;;;;;;;;2126786;59;1382;-69
2021/06/11 09:18:40;;;;;;;;;;;;;;;;;;2127352;67;1146;-69
2021/06/11 09:21:23;;;;;;;;;;;;;;;;;;2126776;67;1194;-70
2021/06/11 09:27:04;;;;;;;;;;;;;;;;;;2126290;59;1313;-68
2021/06/11 09:29:29;;;;;;;;;;;;;;;;;;2127237;67;1171;-69
2021/06/11 09:32:15;;;;;;;;;;;;;;;;;;2126123;67;1920;-68
2021/06/11 09:34:41;;;;;;;;;;;;;;;;;;2125790;67;1326;-69
2021/06/11 09:37:17;;;;;;;;;;;;;;;;;;2127712;67;1238;-69
2021/06/11 09:39:52;;;;;;;;;;;;;;;;;;2127028;67;1162;-68
2021/06/11 09:42:27;;;;;;;;;;;;;;;;;;2127751;67;1161;-68
2021/06/11 09:44:57;;;;;;;;;;;;;;;;;;2125663;59;1205;-68
2021/06/11 09:47:34;;;;;;;;;;;;;;;;;;2126363;67;1330;-68
2021/06/11 09:50:19;;;;;;;;;;;;;;;;;;2126522;67;1451;-67
2021/06/11 09:52:51;;;;;;;;;;;;;;;;;;2125581;67;1931;-68
2021/06/11 09:55:23;;;;;;;;;;;;;;;;;;2127136;67;1243;-67
2021/06/11 09:58:01;;;;;;;;;;;;;;;;;;2125827;67;1207;-68
2021/06/11 10:00:29;;;;;;;;;;;;;;;;;;2127056;67;1041;-65
2021/06/11 10:02:55;;;;;;;;;;;;;;;;;;2128009;67;1174;-67
2021/06/11 10:05:20;;;;;;;;;;;;;;;;;;2126850;67;1159;-66
2021/06/11 10:07:47;;;;;;;;;;;;;;;;;;2127240;67;1184;-68
2021/06/11 10:10:12;;;;;;;;;;;;;;;;;;2126440;67;1250;-66
2021/06/11 10:12:38;;;;;;;;;;;;;;;;;;2125298;67;1927;-68
2021/06/11 10:15:03;;;;;;;;;;;;;;;;;;2127111;59;1377;-66
2021/06/11 10:17:28;;;;;;;;;;;;;;;;;;2127956;67;1202;-65
2021/06/11 10:19:54;;;;;;;;;;;;;;;;;;2126255;67;1064;-68
2021/06/11 10:22:19;;;;;;;;;;;;;;;;;;2126315;67;1160;-67
2021/06/11 10:24:44;;;;;;;;;;;;;;;;;;2127286;67;1190;-69
2021/06/11 10:27:10;;;;;;;;;;;;;;;;;;2127383;67;1135;-69
2021/06/11 10:29:35;;;;;;;;;;;;;;;;;;2126967;59;1296;-66
2021/06/11 10:32:01;;;;;;;;;;;;;;;;;;2127420;67;1925;-68
2021/06/11 10:34:46;;;;;;;;;;;;;;;;;;2126465;67;1151;-69
2021/06/11 10:37:30;;;;;;;;;;;;;;;;;;2127554;67;1456;-68
2021/06/11 10:40:11;;;;;;;;;;;;;;;;;;2126978;67;1047;-68
2021/06/11 10:42:36;;;;;;;;;;;;;;;;;;2127506;67;1199;-67
2021/06/11 10:45:05;;;;;;;;;;;;;;;;;;2126761;59;1187;-64
2021/06/11 10:47:33;;;;;;;;;;;;;;;;;;2126746;59;2278;-66
2021/06/11 10:49:59;;;;;;;;;;;;;;;;;;2125798;59;1383;-66
2021/06/11 10:52:35;;;;;;;;;;;;;;;;;;2129158;66;1981;-66
2021/06/11 10:55:25;;;;;;;;;;;;;;;;;;2126626;59;1196;-66
2021/06/11 10:57:53;;;;;;;;;;;;;;;;;;2126277;67;1191;-66
2021/06/11 11:00:27;;;;;;;;;;;;;;;;;;2127443;67;1220;-66
2021/06/11 11:02:54;;;;;;;;;;;;;;;;;;2127094;59;1154;-67
2021/06/11 11:05:48;;;;;;;;;;;;;;;;;;2127381;67;1213;-67
2021/06/11 11:08:13;;;;;;;;;;;;;;;;;;2127993;67;1268;-67
2021/06/11 11:10:42;;;;;;;;;;;;;;;;;;2126376;67;1223;-67
2021/06/11 11:13:08;;;;;;;;;;;;;;;;;;2127361;67;1922;-68
2021/06/11 11:15:34;;;;;;;;;;;;;;;;;;2125833;66;1333;-67
2021/06/11 11:18:00;;;;;;;;;;;;;;;;;;2126581;67;1091;-68
2021/06/11 11:20:34;;;;;;;;;;;;;;;;;;2125635;59;1222;-66
2021/06/11 11:23:00;;;;;;;;;;;;;;;;;;2127050;67;1230;-66
2021/06/11 11:25:26;;;;;;;;;;;;;;;;;;2125531;67;1199;-66
2021/06/11 11:27:53;;;;;;;;;;;;;;;;;;2124964;67;1247;-67
2021/06/11 11:30:19;;;;;;;;;;;;;;;;;;2126948;67;1294;-67
2021/06/11 11:32:45;;;;;;;;;;;;;;;;;;2127155;66;1924;-67
2021/06/11 11:35:10;;;;;;;;;;;;;;;;;;2127212;66;1131;-67
2021/06/11 11:37:35;;;;;;;;;;;;;;;;;;2126589;67;1231;-67
2021/06/11 11:40:01;;;;;;;;;;;;;;;;;;2126656;67;1214;-67
2021/06/11 11:42:26;;;;;;;;;;;;;;;;;;2126591;67;1195;-66
2021/06/11 11:44:51;;;;;;;;;;;;;;;;;;2126984;59;1110;-67
2021/06/11 11:47:16;;;;;;;;;;;;;;;;;;2126391;59;1254;-66
2021/06/11 11:49:42;;;;;;;;;;;;;;;;;;2125593;67;1362;-68
2021/06/11 11:52:07;;;;;;;;;;;;;;;;;;2127106;67;2043;-66
2021/06/11 11:54:33;;;;;;;;;;;;;;;;;;2126834;67;1184;-65
2021/06/11 11:56:59;;;;;;;;;;;;;;;;;;2125797;67;1064;-66
2021/06/11 11:59:24;;;;;;;;;;;;;;;;;;2126817;67;1168;-66
2021/06/11 12:01:49;;;;;;;;;;;;;;;;;;2126517;67;1202;-67
2021/06/11 12:04:14;;;;;;;;;;;;;;;;;;2126923;67;1151;-67
2021/06/11 12:06:41;;;;;;;;;;;;;;;;;;2127056;67;1236;-66
2021/06/11 12:09:06;;;;;;;;;;;;;;;;;;2125325;67;1182;-66
2021/06/11 12:11:32;;;;;;;;;;;;;;;;;;2126435;67;1920;-67
2021/06/11 12:13:57;;;;;;;;;;;;;;;;;;2127236;66;1158;-67
2021/06/11 12:16:22;;;;;;;;;;;;;;;;;;2126700;59;1286;-67
2021/06/11 12:18:47;;;;;;;;;;;;;;;;;;2126226;66;1170;-65
2021/06/11 12:21:13;;;;;;;;;;;;;;;;;;2127248;59;1232;-67
2021/06/11 12:23:38;;;;;;;;;;;;;;;;;;2126925;67;1040;-66
2021/06/11 12:26:04;;;;;;;;;;;;;;;;;;2127356;67;1173;-67
2021/06/11 12:28:29;;;;;;;;;;;;;;;;;;2126931;59;1429;-66
2021/06/11 12:30:54;;;;;;;;;;;;;;;;;;2125501;67;1222;-67
2021/06/11 12:33:19;;;;;;;;;;;;;;;;;;2126507;67;1932;-68
2021/06/11 12:35:45;;;;;;;;;;;;;;;;;;2124963;67;1167;-67
2021/06/11 12:38:10;;;;;;;;;;;;;;;;;;2127338;67;1161;-66
2021/06/11 12:40:38;;;;;;;;;;;;;;;;;;2127039;67;1155;-67
2021/06/11 12:43:04;;;;;;;;;;;;;;;;;;2126560;67;1230;-67
2021/06/11 12:45:30;;;;;;;;;;;;;;;;;;2126307;59;1290;-66
2021/06/11 12:47:55;;;;;;;;;;;;;;;;;;2126567;67;1706;-67
2021/06/11 12:50:21;;;;;;;;;;;;;;;;;;2126328;67;1354;-66
2021/06/11 12:52:46;;;;;;;;;;;;;;;;;;2126001;67;1932;-67
2021/06/11 12:55:11;;;;;;;;;;;;;;;;;;2125869;67;1216;-67
2021/06/11 12:57:38;;;;;;;;;;;;;;;;;;2126754;67;1210;-66
2021/06/11 13:00:04;;;;;;;;;;;;;;;;;;2126004;67;1238;-67
2021/06/11 13:02:29;;;;;;;;;;;;;;;;;;2127066;67;1156;-66
2021/06/11 13:04:55;;;;;;;;;;;;;;;;;;2125873;67;1200;-67
2021/06/11 13:07:21;;;;;;;;;;;;;;;;;;2127237;59;1352;-67
2021/06/11 13:09:46;;;;;;;;;;;;;;;;;;2126071;67;1210;-67
2021/06/11 13:12:11;;;;;;;;;;;;;;;;;;2126853;67;1928;-65
2021/06/11 13:14:36;;;;;;;;;;;;;;;;;;2126603;67;1239;-67
2021/06/11 13:17:02;;;;;;;;;;;;;;;;;;2126589;59;1503;-66
2021/06/11 13:19:28;;;;;;;;;;;;;;;;;;2126856;67;1163;-67
2021/06/11 13:21:53;;;;;;;;;;;;;;;;;;2126035;59;1203;-66
2021/06/11 13:24:18;;;;;;;;;;;;;;;;;;2127176;67;1161;-67
2021/06/11 13:26:44;;;;;;;;;;;;;;;;;;2126258;67;1251;-66
2021/06/11 13:29:09;;;;;;;;;;;;;;;;;;2126730;67;1249;-67
2021/06/11 13:31:35;;;;;;;;;;;;;;;;;;2125246;67;2256;-66
2021/06/11 13:34:00;;;;;;;;;;;;;;;;;;2126130;67;1200;-67
2021/06/11 13:36:25;;;;;;;;;;;;;;;;;;2125397;67;1151;-67
2021/06/11 13:38:50;;;;;;;;;;;;;;;;;;2126140;67;1234;-65
2021/06/11 13:41:16;;;;;;;;;;;;;;;;;;2127630;67;1164;-66
2021/06/11 13:43:42;;;;;;;;;;;;;;;;;;2126472;67;1191;-67
2021/06/11 13:46:07;;;;;;;;;;;;;;;;;;2127596;59;1163;-67
2021/06/11 13:48:32;;;;;;;;;;;;;;;;;;2125632;59;1225;-66
2021/06/11 13:50:57;;;;;;;;;;;;;;;;;;2124706;67;1276;-67
2021/06/11 13:53:23;;;;;;;;;;;;;;;;;;2126383;67;1920;-67
2021/06/11 13:55:48;;;;;;;;;;;;;;;;;;2127446;67;1278;-66
2021/06/11 13:58:13;;;;;;;;;;;;;;;;;;2125428;67;1179;-67
2021/06/11 14:00:38;;;;;;;;;;;;;;;;;;2126553;67;1237;-68
2021/06/11 14:03:04;;;;;;;;;;;;;;;;;;2126477;67;1227;-66
2021/06/11 14:05:30;;;;;;;;;;;;;;;;;;2126870;67;1198;-66
2021/06/11 14:07:56;;;;;;;;;;;;;;;;;;2126481;66;1282;-66
2021/06/11 14:10:22;;;;;;;;;;;;;;;;;;2125656;67;1229;-66
2021/06/11 14:12:47;;;;;;;;;;;;;;;;;;2126160;67;1933;-67
2021/06/11 14:15:13;;;;;;;;;;;;;;;;;;2127053;67;1383;-67
2021/06/11 14:17:38;;;;;;;;;;;;;;;;;;2127116;67;1253;-66
2021/06/11 14:20:04;;;;;;;;;;;;;;;;;;2126796;67;1157;-67
2021/06/11 14:22:29;;;;;;;;;;;;;;;;;;2127381;67;1079;-66
2021/06/11 14:24:55;;;;;;;;;;;;;;;;;;2126875;67;1239;-67
2021/06/11 14:27:24;;;;;;;;;;;;;;;;;;2127035;67;1231;-67
2021/06/11 14:29:49;;;;;;;;;;;;;;;;;;2127334;59;1305;-66
2021/06/11 14:32:15;;;;;;;;;;;;;;;;;;2125998;67;1977;-66
2021/06/11 14:34:41;;;;;;;;;;;;;;;;;;2126999;67;1263;-66
2021/06/11 14:37:06;;;;;;;;;;;;;;;;;;2127679;67;1210;-67
2021/06/11 14:39:31;;;;;;;;;;;;;;;;;;2126873;67;1185;-67
2021/06/11 14:41:56;;;;;;;;;;;;;;;;;;2127427;67;1194;-67
2021/06/11 14:44:23;;;;;;;;;;;;;;;;;;2126926;67;1186;-67
2021/06/11 14:46:48;;;;;;;;;;;;;;;;;;2127435;67;1343;-67
2021/06/11 14:49:13;;;;;;;;;;;;;;;;;;2127688;66;1288;-67
2021/06/11 14:51:39;;;;;;;;;;;;;;;;;;2133073;66;1982;-67
2021/06/11 14:54:05;;;;;;;;;;;;;;;;;;2130059;66;1186;-67
2021/06/11 14:59:03;;;;;;;;;;;;;;;;;;2126623;59;1210;-67
2021/06/11 15:01:28;;;;;;;;;;;;;;;;;;2127243;66;1202;-66
2021/06/11 15:03:53;;;;;;;;;;;;;;;;;;2127390;67;1225;-67
2021/06/11 15:06:20;;;;;;;;;;;;;;;;;;2127372;67;1198;-67
2021/06/11 15:08:45;;;;;;;;;;;;;;;;;;2126379;59;1650;-67
2021/06/11 15:11:10;;;;;;;;;;;;;;;;;;2126569;67;1284;-66
2021/06/11 15:13:35;;;;;;;;;;;;;;;;;;2126354;67;1974;-66
2021/06/11 15:16:00;;;;;;;;;;;;;;;;;;2127564;59;1493;-66
2021/06/11 15:18:27;;;;;;;;;;;;;;;;;;2126856;67;1230;-67
2021/06/11 15:20:54;;;;;;;;;;;;;;;;;;2126431;67;1177;-67
2021/06/11 15:23:20;;;;;;;;;;;;;;;;;;2127230;67;1199;-67
2021/06/11 15:25:45;;;;;;;;;;;;;;;;;;2126397;67;1321;-67
2021/06/11 15:28:14;;;;;;;;;;;;;;;;;;2126802;67;1183;-68
2021/06/11 15:30:43;;;;;;;;;;;;;;;;;;2125842;67;1337;-67
2021/06/11 15:33:08;;;;;;;;;;;;;;;;;;2125847;67;1933;-67
2021/06/11 15:35:34;;;;;;;;;;;;;;;;;;2127158;67;1273;-67
2021/06/11 15:38:00;;;;;;;;;;;;;;;;;;2126526;67;1090;-67
2021/06/11 15:40:25;;;;;;;;;;;;;;;;;;2126730;67;1186;-67
2021/06/11 15:42:50;;;;;;;;;;;;;;;;;;2126738;67;1242;-68
2021/06/11 15:45:16;;;;;;;;;;;;;;;;;;2126945;67;1206;-67
2021/06/11 15:47:41;;;;;;;;;;;;;;;;;;2126562;59;1327;-67
2021/06/11 15:50:07;;;;;;;;;;;;;;;;;;2126985;66;1206;-66
2021/06/11 15:52:33;;;;;;;;;;;;;;;;;;2126604;59;1928;-67
2021/06/11 15:54:58;;;;;;;;;;;;;;;;;;2126277;67;1740;-66
2021/06/11 15:57:23;;;;;;;;;;;;;;;;;;2126459;67;1200;-67
2021/06/11 15:59:48;;;;;;;;;;;;;;;;;;2127322;67;1182;-67
2021/06/11 16:02:14;;;;;;;;;;;;;;;;;;2126472;67;1213;-68
2021/06/11 16:04:39;;;;;;;;;;;;;;;;;;2127110;67;1199;-67
2021/06/11 16:07:04;;;;;;;;;;;;;;;;;;2126386;67;1175;-65
2021/06/11 16:09:29;;;;;;;;;;;;;;;;;;2125838;67;1331;-66
2021/06/11 16:11:57;;;;;;;;;;;;;;;;;;2125845;67;1927;-66
2021/06/11 16:14:22;;;;;;;;;;;;;;;;;;2125554;66;1155;-67
2021/06/11 16:16:48;;;;;;;;;;;;;;;;;;2127174;59;1527;-66
2021/06/11 16:19:13;;;;;;;;;;;;;;;;;;2126299;66;1210;-66
2021/06/11 16:21:38;;;;;;;;;;;;;;;;;;2126669;67;1188;-67
2021/06/11 16:24:04;;;;;;;;;;;;;;;;;;2126347;67;1232;-66
2021/06/11 16:26:29;;;;;;;;;;;;;;;;;;2126696;67;1277;-65
2021/06/11 16:28:54;;;;;;;;;;;;;;;;;;2126168;59;1290;-67
2021/06/11 16:31:19;;;;;;;;;;;;;;;;;;2127033;67;1164;-66
2021/06/11 16:33:45;;;;;;;;;;;;;;;;;;2126039;67;1934;-67
2021/06/11 16:36:10;;;;;;;;;;;;;;;;;;2125998;67;1265;-66
2021/06/11 16:38:40;;;;;;;;;;;;;;;;;;2125839;67;1154;-66
2021/06/11 16:41:06;;;;;;;;;;;;;;;;;;2127136;67;1141;-66
2021/06/11 16:43:31;;;;;;;;;;;;;;;;;;2126123;67;1062;-66
2021/06/11 16:45:56;;;;;;;;;;;;;;;;;;2127205;59;2236;-67
2021/06/11 16:48:22;;;;;;;;;;;;;;;;;;2126484;59;1537;-66
2021/06/11 16:50:47;;;;;;;;;;;;;;;;;;2125464;59;1165;-67
2021/06/11 16:53:13;;;;;;;;;;;;;;;;;;2125643;66;1942;-67
2021/06/11 16:55:38;;;;;;;;;;;;;;;;;;2125961;67;1293;-67
2021/06/11 16:58:03;;;;;;;;;;;;;;;;;;2126627;67;1224;-70
2021/06/11 17:00:31;;;;;;;;;;;;;;;;;;2125335;67;1195;-69
2021/06/11 17:02:56;;;;;;;;;;;;;;;;;;2126952;59;1233;-67
2021/06/11 17:05:22;;;;;;;;;;;;;;;;;;2126746;67;1252;-67